createdAt,value
2023-10-23T00:01:22.084Z,11.30
2023-10-23T00:03:49.080Z,11.30
2023-10-23T00:06:15.986Z,11.28
2023-10-23T00:08:42.764Z,11.24
2023-10-23T00:11:09.416Z,11.20
2023-10-23T00:13:36.059Z,11.20
2023-10-23T00:16:02.816Z,11.20
2023-10-23T00:18:29.592Z,11.20
2023-10-23T00:20:57.395Z,11.20
2023-10-23T00:23:24.175Z,11.20
2023-10-23T00:25:50.842Z,11.20
2023-10-23T00:28:17.516Z,11.20
2023-10-23T00:30:45.398Z,11.20
2023-10-23T00:33:12.896Z,11.20
2023-10-23T00:35:40.399Z,11.20
2023-10-23T00:38:07.378Z,11.20
2023-10-23T00:40:34.134Z,11.20
2023-10-23T00:43:22.976Z,11.20
2023-10-23T00:45:54.893Z,11.20
2023-10-23T00:48:24.191Z,11.20
2023-10-23T00:50:57.502Z,11.20
2023-10-23T00:53:26.853Z,11.20
2023-10-23T00:55:56.160Z,11.20
2023-10-23T00:58:28.888Z,11.20
2023-10-23T01:00:59.008Z,11.20
2023-10-23T01:03:27.338Z,11.24
2023-10-23T01:05:54.171Z,11.22
2023-10-23T01:08:20.853Z,11.30
2023-10-23T01:11:02.547Z,11.30
2023-10-23T01:13:29.502Z,11.30
2023-10-23T01:15:56.208Z,11.30
2023-10-23T01:18:23.061Z,11.32
2023-10-23T01:20:49.933Z,11.40
2023-10-23T01:23:16.661Z,11.40
2023-10-23T01:25:43.356Z,11.40
2023-10-23T01:28:10.115Z,11.40
2023-10-23T01:30:36.973Z,11.44
2023-10-23T01:33:03.963Z,11.40
2023-10-23T01:35:30.671Z,11.40
2023-10-23T01:37:57.409Z,11.40
2023-10-23T01:40:24.323Z,11.30
2023-10-23T01:42:51.184Z,11.30
2023-10-23T01:45:20.295Z,11.22
2023-10-23T01:47:47.422Z,11.20
2023-10-23T01:50:14.170Z,11.18
2023-10-23T01:52:42.740Z,11.10
2023-10-23T01:55:10.027Z,11.10
2023-10-23T01:57:36.804Z,11.00
2023-10-23T02:00:06.092Z,11.00
2023-10-23T02:02:42.810Z,11.00
2023-10-23T02:05:09.757Z,11.00
2023-10-23T02:07:36.452Z,11.00
2023-10-23T02:10:03.217Z,10.90
2023-10-23T02:12:29.875Z,10.80
2023-10-23T02:14:57.550Z,10.70
2023-10-23T02:17:24.363Z,10.70
2023-10-23T02:19:51.110Z,10.70
2023-10-23T02:22:19.925Z,10.70
2023-10-23T02:24:47.159Z,10.80
2023-10-23T02:27:14.101Z,10.80
2023-10-23T02:29:43.831Z,10.80
2023-10-23T02:32:12.344Z,10.80
2023-10-23T02:34:39.552Z,10.80
2023-10-23T02:37:08.140Z,10.86
2023-10-23T02:39:34.851Z,10.88
2023-10-23T02:42:01.651Z,10.86
2023-10-23T02:44:28.621Z,10.80
2023-10-23T02:46:55.445Z,10.80
2023-10-23T02:49:22.164Z,10.80
2023-10-23T02:51:49.553Z,10.80
2023-10-23T02:54:17.490Z,10.80
2023-10-23T02:56:44.357Z,10.80
2023-10-23T02:59:11.185Z,10.80
2023-10-23T03:01:39.103Z,10.80
2023-10-23T03:04:06.380Z,10.72
2023-10-23T03:06:34.542Z,10.70
2023-10-23T03:09:01.336Z,10.70
2023-10-23T03:11:28.047Z,10.70
2023-10-23T03:13:55.017Z,10.66
2023-10-23T03:16:22.466Z,10.60
2023-10-23T03:18:50.203Z,10.60
2023-10-23T03:21:17.031Z,10.56
2023-10-23T03:23:43.899Z,10.54
2023-10-23T03:26:10.623Z,10.54
2023-10-23T03:28:37.380Z,10.50
2023-10-23T03:31:04.749Z,10.50
2023-10-23T03:33:33.594Z,10.50
2023-10-23T03:36:00.525Z,10.50
2023-10-23T03:38:27.199Z,10.50
2023-10-23T03:41:00.690Z,10.50
2023-10-23T03:43:27.854Z,10.50
2023-10-23T03:45:55.131Z,10.40
2023-10-23T03:48:22.106Z,10.40
2023-10-23T03:50:49.111Z,10.40
2023-10-23T03:53:15.928Z,10.40
2023-10-23T03:55:42.641Z,10.40
2023-10-23T03:58:09.318Z,10.34
2023-10-23T04:00:36.212Z,10.30
2023-10-23T04:03:02.934Z,10.30
2023-10-23T04:05:31.775Z,10.30
2023-10-23T04:07:59.698Z,10.30
2023-10-23T04:10:26.596Z,10.28
2023-10-23T04:12:53.368Z,10.20
2023-10-23T04:15:20.250Z,10.20
2023-10-23T04:17:47.838Z,10.20
2023-10-23T04:20:14.697Z,10.20
2023-10-23T04:22:41.434Z,10.20
2023-10-23T04:25:08.590Z,10.10
2023-10-23T04:27:35.343Z,10.10
2023-10-23T04:30:02.170Z,10.10
2023-10-23T04:32:29.007Z,10.10
2023-10-23T04:34:55.775Z,10.10
2023-10-23T04:37:23.055Z,10.04
2023-10-23T04:39:49.936Z,10.00
2023-10-23T04:42:16.754Z,10.00
2023-10-23T04:44:43.399Z,10.00
2023-10-23T04:47:10.304Z,9.90
2023-10-23T04:49:37.240Z,9.90
2023-10-23T04:52:04.677Z,9.90
2023-10-23T04:54:31.418Z,9.90
2023-10-23T04:56:58.191Z,9.90
2023-10-23T04:59:24.890Z,9.90
2023-10-23T05:01:51.595Z,9.90
2023-10-23T05:04:18.429Z,9.84
2023-10-23T05:06:45.249Z,9.80
2023-10-23T05:09:13.893Z,9.84
2023-10-23T05:11:40.708Z,9.84
2023-10-23T05:14:07.565Z,9.88
2023-10-23T05:16:34.203Z,9.90
2023-10-23T05:19:00.927Z,9.90
2023-10-23T05:21:27.623Z,9.90
2023-10-23T05:23:54.211Z,9.90
2023-10-23T05:26:21.303Z,9.90
2023-10-23T05:28:48.038Z,9.90
2023-10-23T05:31:15.000Z,9.90
2023-10-23T05:33:41.855Z,9.90
2023-10-23T05:36:11.028Z,9.90
2023-10-23T05:38:39.287Z,9.92
2023-10-23T05:41:11.998Z,9.90
2023-10-23T05:43:38.622Z,9.90
2023-10-23T05:46:05.473Z,9.90
2023-10-23T05:48:32.713Z,9.90
2023-10-23T05:51:05.886Z,9.90
2023-10-23T05:53:34.504Z,9.92
2023-10-23T05:56:05.826Z,9.90
2023-10-23T05:58:36.564Z,9.98
2023-10-23T06:01:13.847Z,10.00
2023-10-23T06:03:40.748Z,10.00
2023-10-23T06:06:08.363Z,10.00
2023-10-23T06:08:35.363Z,10.00
2023-10-23T06:11:03.166Z,10.00
2023-10-23T06:13:30.089Z,10.04
2023-10-23T06:16:06.058Z,10.10
2023-10-23T06:18:37.388Z,10.10
2023-10-23T06:21:07.132Z,10.10
2023-10-23T06:23:44.361Z,10.04
2023-10-23T06:26:11.059Z,10.08
2023-10-23T06:28:38.892Z,10.10
2023-10-23T06:31:11.285Z,10.10
2023-10-23T06:33:44.015Z,10.10
2023-10-23T06:36:11.190Z,10.12
2023-10-23T06:38:38.846Z,10.10
2023-10-23T06:41:07.418Z,10.10
2023-10-23T06:43:35.600Z,10.20
2023-10-23T06:46:03.103Z,10.30
2023-10-23T06:48:33.539Z,10.30
2023-10-23T06:51:00.881Z,10.40
2023-10-23T06:53:27.780Z,10.50
2023-10-23T06:55:55.902Z,10.50
2023-10-23T06:58:23.400Z,10.60
2023-10-23T07:00:50.437Z,10.70
2023-10-23T07:03:18.303Z,10.80
2023-10-23T07:05:45.300Z,10.90
2023-10-23T07:08:12.480Z,11.10
2023-10-23T07:10:39.676Z,11.28
2023-10-23T07:13:18.997Z,11.40
2023-10-23T07:15:52.155Z,11.50
2023-10-23T07:18:19.506Z,11.60
2023-10-23T07:20:58.080Z,11.70
2023-10-23T07:23:24.895Z,11.70
2023-10-23T07:26:09.611Z,11.78
2023-10-23T07:28:39.799Z,11.80
2023-10-23T07:31:11.709Z,11.80
2023-10-23T07:33:38.588Z,11.80
2023-10-23T07:36:09.123Z,11.90
2023-10-23T07:38:38.704Z,11.90
2023-10-23T07:41:05.676Z,11.90
2023-10-23T07:43:32.454Z,11.90
2023-10-23T07:46:15.565Z,11.98
2023-10-23T07:48:45.066Z,11.96
2023-10-23T07:51:12.096Z,11.90
2023-10-23T07:53:38.952Z,12.06
2023-10-23T07:56:06.637Z,12.20
2023-10-23T07:58:34.211Z,12.20
2023-10-23T08:01:13.402Z,12.32
2023-10-23T08:03:40.438Z,12.50
2023-10-23T08:06:10.854Z,12.70
2023-10-23T08:08:40.517Z,12.80
2023-10-23T08:11:10.793Z,12.82
2023-10-23T08:13:38.980Z,13.00
2023-10-23T08:16:07.292Z,13.12
2023-10-23T08:18:39.800Z,13.30
2023-10-23T08:21:16.650Z,13.40
2023-10-23T08:23:47.368Z,13.60
2023-10-23T08:26:14.222Z,13.68
2023-10-23T08:29:01.265Z,13.70
2023-10-23T08:31:38.421Z,13.80
2023-10-23T08:34:07.882Z,13.90
2023-10-23T08:36:35.177Z,14.00
2023-10-23T08:39:02.643Z,14.10
2023-10-23T08:41:30.076Z,14.10
2023-10-23T08:43:57.615Z,14.10
2023-10-23T08:46:34.767Z,14.20
2023-10-23T08:49:07.562Z,14.10
2023-10-23T08:51:36.713Z,14.16
2023-10-23T08:54:16.100Z,14.50
2023-10-23T08:56:44.512Z,15.22
2023-10-23T08:59:15.176Z,15.88
2023-10-23T09:01:42.092Z,16.30
2023-10-23T09:04:12.042Z,16.70
2023-10-23T09:06:41.030Z,17.12
2023-10-23T09:09:08.368Z,17.68
2023-10-23T09:11:53.434Z,18.20
2023-10-23T09:14:32.936Z,18.60
2023-10-23T09:17:01.181Z,19.14
2023-10-23T09:19:34.051Z,20.16
2023-10-23T09:22:01.482Z,21.16
2023-10-23T09:24:28.294Z,21.60
2023-10-23T09:26:55.016Z,22.00
2023-10-23T09:29:26.739Z,22.72
2023-10-23T09:32:00.225Z,23.32
2023-10-23T09:34:30.109Z,23.80
2023-10-23T09:36:57.258Z,24.10
2023-10-23T09:39:24.420Z,24.10
2023-10-23T09:41:52.245Z,24.20
2023-10-23T09:44:19.181Z,23.58
2023-10-23T09:46:49.492Z,22.90
2023-10-23T09:49:17.971Z,22.48
2023-10-23T09:51:49.957Z,22.10
2023-10-23T09:54:21.387Z,22.10
2023-10-23T09:56:54.775Z,22.32
2023-10-23T09:59:35.895Z,22.28
2023-10-23T10:02:07.449Z,22.00
2023-10-23T10:05:06.869Z,21.84
2023-10-23T10:08:08.606Z,21.48
2023-10-23T10:10:37.643Z,21.28
2023-10-23T10:13:04.631Z,21.00
2023-10-23T10:15:33.057Z,20.62
2023-10-23T10:18:00.071Z,20.40
2023-10-23T10:20:28.598Z,20.20
2023-10-23T10:23:17.897Z,20.34
2023-10-23T10:25:47.686Z,20.50
2023-10-23T10:28:15.497Z,20.40
2023-10-23T10:30:51.666Z,20.20
2023-10-23T10:34:22.590Z,20.20
2023-10-23T10:36:41.614Z,20.10
2023-10-23T10:39:06.972Z,19.96
2023-10-23T10:41:36.918Z,19.80
2023-10-23T10:44:11.278Z,19.80
2023-10-23T10:46:42.308Z,19.70
2023-10-23T10:49:11.597Z,19.58
2023-10-23T10:51:38.626Z,19.40
2023-10-23T10:54:11.859Z,19.10
2023-10-23T10:56:38.746Z,19.00
2023-10-23T10:59:06.779Z,19.00
2023-10-23T11:01:34.793Z,19.00
2023-10-23T11:04:02.608Z,19.00
2023-10-23T11:06:30.886Z,19.00
2023-10-23T11:09:00.689Z,19.00
2023-10-23T11:11:29.014Z,18.90
2023-10-23T11:13:55.924Z,18.90
2023-10-23T11:16:22.931Z,18.80
2023-10-23T11:18:50.035Z,18.80
2023-10-23T11:21:23.299Z,18.76
2023-10-23T11:23:50.911Z,18.60
2023-10-23T11:26:17.636Z,18.60
2023-10-23T11:28:44.311Z,18.70
2023-10-23T11:31:11.533Z,18.70
2023-10-23T11:33:38.353Z,18.64
2023-10-23T11:36:07.432Z,18.58
2023-10-23T11:38:39.347Z,18.58
2023-10-23T11:41:06.180Z,18.52
2023-10-23T11:43:32.825Z,18.52
2023-10-23T11:45:59.924Z,18.50
2023-10-23T11:48:27.024Z,18.60
2023-10-23T11:50:53.929Z,18.60
2023-10-23T11:53:20.754Z,18.70
2023-10-23T11:55:47.603Z,18.70
2023-10-23T11:58:14.425Z,18.60
2023-10-23T12:00:41.957Z,18.60
2023-10-23T12:03:08.720Z,18.50
2023-10-23T12:05:35.504Z,18.50
2023-10-23T12:08:02.690Z,18.50
2023-10-23T12:10:29.778Z,18.50
2023-10-23T12:12:57.832Z,18.50
2023-10-23T12:15:25.237Z,18.52
2023-10-23T12:17:52.596Z,18.60
2023-10-23T12:20:23.178Z,18.60
2023-10-23T12:22:53.607Z,18.60
2023-10-23T12:25:20.560Z,18.50
2023-10-23T12:27:47.485Z,18.40
2023-10-23T12:30:24.169Z,18.26
2023-10-23T12:33:14.413Z,18.10
2023-10-23T12:35:42.114Z,18.00
2023-10-23T12:38:09.066Z,18.00
2023-10-23T12:40:37.239Z,18.00
2023-10-23T12:43:05.383Z,17.90
2023-10-23T12:45:32.429Z,18.00
2023-10-23T12:47:59.217Z,18.00
2023-10-23T12:50:25.834Z,18.10
2023-10-23T12:52:52.644Z,18.10
2023-10-23T12:55:19.276Z,18.10
2023-10-23T12:57:47.398Z,18.10
2023-10-23T13:00:14.820Z,18.10
2023-10-23T13:02:43.792Z,18.10
2023-10-23T13:05:12.253Z,18.00
2023-10-23T13:07:39.617Z,17.96
2023-10-23T13:10:06.909Z,18.08
2023-10-23T13:12:35.045Z,18.10
2023-10-23T13:15:02.195Z,18.10
2023-10-23T13:17:28.933Z,18.04
2023-10-23T13:19:56.057Z,18.00
2023-10-23T13:22:23.686Z,18.02
2023-10-23T13:24:50.553Z,18.10
2023-10-23T13:27:17.328Z,18.20
2023-10-23T13:29:45.042Z,18.10
2023-10-23T13:32:15.869Z,18.10
2023-10-23T13:34:45.655Z,18.10
2023-10-23T13:37:13.297Z,18.10
2023-10-23T13:39:39.981Z,18.10
2023-10-23T13:42:06.761Z,18.10
2023-10-23T13:44:34.230Z,18.00
2023-10-23T13:47:01.420Z,18.00
2023-10-23T13:49:29.212Z,18.06
2023-10-23T13:51:55.900Z,18.00
2023-10-23T13:54:23.878Z,17.92
2023-10-23T13:56:50.500Z,17.84
2023-10-23T13:59:17.146Z,17.80
2023-10-23T14:01:43.869Z,17.70
2023-10-23T14:04:10.823Z,17.70
2023-10-23T14:06:37.703Z,17.70
2023-10-23T14:09:40.681Z,17.70
2023-10-23T14:11:59.396Z,17.70
2023-10-23T14:14:29.630Z,17.60
2023-10-23T14:16:59.612Z,17.60
2023-10-23T14:19:42.460Z,17.50
2023-10-23T14:22:13.168Z,17.50
2023-10-23T14:24:40.091Z,17.40
2023-10-23T14:27:06.942Z,17.40
2023-10-23T14:29:33.769Z,17.40
2023-10-23T14:32:01.347Z,17.40
2023-10-23T14:34:29.535Z,17.40
2023-10-23T14:36:56.890Z,17.40
2023-10-23T14:39:28.221Z,17.42
2023-10-23T14:41:55.119Z,17.50
2023-10-23T14:44:21.904Z,17.50
2023-10-23T14:46:53.086Z,17.40
2023-10-23T14:49:20.155Z,17.40
2023-10-23T14:51:46.923Z,17.38
2023-10-23T14:54:13.541Z,17.30
2023-10-23T14:56:40.304Z,17.30
2023-10-23T14:59:07.094Z,17.30
2023-10-23T15:01:34.302Z,17.20
2023-10-23T15:04:01.669Z,17.20
2023-10-23T15:06:28.648Z,17.10
2023-10-23T15:08:55.744Z,17.00
2023-10-23T15:11:26.281Z,17.00
2023-10-23T15:13:56.939Z,16.90
2023-10-23T15:16:23.737Z,16.90
2023-10-23T15:18:53.782Z,16.80
2023-10-23T15:21:20.482Z,16.70
2023-10-23T15:23:47.048Z,16.70
2023-10-23T15:26:13.787Z,16.60
2023-10-23T15:28:41.626Z,16.60
2023-10-23T15:31:08.821Z,16.50
2023-10-23T15:33:37.145Z,16.50
2023-10-23T15:36:06.453Z,16.42
2023-10-23T15:38:35.507Z,16.40
2023-10-23T15:41:09.357Z,16.30
2023-10-23T15:43:38.392Z,16.20
2023-10-23T15:46:06.229Z,16.20
2023-10-23T15:48:33.101Z,16.10
2023-10-23T15:50:59.950Z,16.00
2023-10-23T15:53:28.100Z,16.00
2023-10-23T15:55:56.768Z,15.90
2023-10-23T15:58:24.893Z,15.80
2023-10-23T16:00:53.937Z,15.80
2023-10-23T16:03:21.950Z,15.74
2023-10-23T16:05:50.076Z,15.70
2023-10-23T16:08:18.131Z,15.70
2023-10-23T16:10:49.377Z,15.60
2023-10-23T16:13:17.424Z,15.50
2023-10-23T16:15:45.723Z,15.50
2023-10-23T16:18:14.532Z,15.40
2023-10-23T16:20:43.380Z,15.40
2023-10-23T16:23:12.025Z,15.30
2023-10-23T16:25:43.885Z,15.30
2023-10-23T16:28:11.780Z,15.30
2023-10-23T16:30:40.363Z,15.28
2023-10-23T16:33:08.847Z,15.30
2023-10-23T16:35:36.520Z,15.20
2023-10-23T16:38:04.104Z,15.20
2023-10-23T16:40:33.723Z,15.20
2023-10-23T16:43:01.742Z,15.16
2023-10-23T16:45:29.561Z,15.10
2023-10-23T16:48:00.869Z,15.10
2023-10-23T16:50:31.349Z,15.02
2023-10-23T16:53:02.014Z,15.00
2023-10-23T16:55:28.828Z,15.00
2023-10-23T16:57:55.515Z,14.90
2023-10-23T17:00:22.288Z,14.90
2023-10-23T17:02:49.185Z,14.90
2023-10-23T17:05:16.178Z,14.80
2023-10-23T17:07:43.055Z,14.80
2023-10-23T17:10:10.051Z,14.80
2023-10-23T17:12:36.939Z,14.80
2023-10-23T17:15:04.279Z,14.70
2023-10-23T17:17:31.499Z,14.70
2023-10-23T17:19:59.072Z,14.70
2023-10-23T17:22:25.768Z,14.64
2023-10-23T17:24:52.597Z,14.60
2023-10-23T17:27:19.398Z,14.60
2023-10-23T17:29:46.394Z,14.60
2023-10-23T17:32:14.056Z,14.56
2023-10-23T17:34:40.980Z,14.50
2023-10-23T17:37:07.731Z,14.50
2023-10-23T17:39:34.554Z,14.40
2023-10-23T17:42:02.866Z,14.40
2023-10-23T17:44:30.392Z,14.40
2023-10-23T17:46:57.110Z,14.30
2023-10-23T17:49:24.009Z,14.30
2023-10-23T17:51:51.662Z,14.28
2023-10-23T17:54:18.751Z,14.20
2023-10-23T17:56:45.389Z,14.20
2023-10-23T17:59:12.968Z,14.20
2023-10-23T18:01:43.544Z,14.12
2023-10-23T18:04:12.049Z,14.10
2023-10-23T18:06:39.535Z,14.10
2023-10-23T18:09:06.570Z,14.10
2023-10-23T18:11:34.089Z,14.10
2023-10-23T18:14:00.924Z,14.02
2023-10-23T18:16:27.778Z,14.00
2023-10-23T18:18:54.709Z,14.00
2023-10-23T18:21:21.581Z,14.00
2023-10-23T18:23:48.259Z,14.00
2023-10-23T18:26:14.969Z,13.90
2023-10-23T18:28:41.775Z,13.90
2023-10-23T18:31:08.666Z,13.90
2023-10-23T18:33:35.652Z,13.90
2023-10-23T18:36:04.449Z,13.90
2023-10-23T18:38:31.170Z,13.90
2023-10-23T18:40:58.113Z,13.88
2023-10-23T18:43:28.105Z,13.80
2023-10-23T18:45:56.872Z,13.80
2023-10-23T18:48:24.074Z,13.80
2023-10-23T18:51:01.490Z,13.80
2023-10-23T18:53:29.343Z,13.80
2023-10-23T18:55:56.145Z,13.80
2023-10-23T18:58:23.800Z,13.72
2023-10-23T19:00:51.978Z,13.70
2023-10-23T19:03:19.034Z,13.70
2023-10-23T19:05:46.528Z,13.70
2023-10-23T19:08:13.624Z,13.70
2023-10-23T19:10:40.903Z,13.68
2023-10-23T19:13:08.880Z,13.60
2023-10-23T19:15:35.934Z,13.60
2023-10-23T19:18:04.081Z,13.60
2023-10-23T19:20:31.068Z,13.60
2023-10-23T19:22:57.843Z,13.60
2023-10-23T19:25:24.574Z,13.58
2023-10-23T19:27:51.468Z,13.52
2023-10-23T19:30:18.330Z,13.54
2023-10-23T19:32:47.899Z,13.50
2023-10-23T19:35:16.372Z,13.50
2023-10-23T19:37:43.547Z,13.50
2023-10-23T19:40:12.414Z,13.42
2023-10-23T19:42:42.328Z,13.40
2023-10-23T19:45:10.045Z,13.40
2023-10-23T19:47:37.333Z,13.40
2023-10-23T19:50:05.166Z,13.40
2023-10-23T19:52:36.119Z,13.40
2023-10-23T19:55:37.251Z,13.40
2023-10-23T19:57:52.387Z,13.40
2023-10-23T20:00:19.570Z,13.38
2023-10-23T20:02:46.426Z,13.40
2023-10-23T20:05:13.302Z,13.36
2023-10-23T20:07:40.870Z,13.32
2023-10-23T20:10:09.313Z,13.30
2023-10-23T20:12:36.303Z,13.30
2023-10-23T20:15:03.629Z,13.30
2023-10-23T20:17:30.357Z,13.30
2023-10-23T20:19:57.072Z,13.30
2023-10-23T20:22:23.849Z,13.30
2023-10-23T20:24:50.495Z,13.30
2023-10-23T20:27:17.203Z,13.30
2023-10-23T20:29:43.935Z,13.30
2023-10-23T20:32:10.856Z,13.30
2023-10-23T20:34:37.635Z,13.30
2023-10-23T20:37:04.604Z,13.30
2023-10-23T20:39:32.952Z,13.30
2023-10-23T20:41:59.591Z,13.30
2023-10-23T20:44:26.606Z,13.24
2023-10-23T20:46:53.420Z,13.20
2023-10-23T20:49:20.314Z,13.20
2023-10-23T20:51:46.955Z,13.20
2023-10-23T20:54:14.090Z,13.20
2023-10-23T20:56:40.833Z,13.20
2023-10-23T20:59:10.767Z,13.20
2023-10-23T21:01:37.851Z,13.20
2023-10-23T21:04:05.603Z,13.20
2023-10-23T21:06:32.499Z,13.20
2023-10-23T21:09:00.094Z,13.10
2023-10-23T21:11:28.285Z,13.10
2023-10-23T21:13:55.013Z,13.10
2023-10-23T21:16:24.724Z,13.10
2023-10-23T21:18:51.707Z,13.10
2023-10-23T21:21:18.904Z,13.10
2023-10-23T21:23:45.588Z,13.10
2023-10-23T21:26:12.322Z,13.10
2023-10-23T21:28:41.370Z,13.10
2023-10-23T21:31:09.905Z,13.10
2023-10-23T21:33:36.925Z,13.10
2023-10-23T21:36:03.915Z,13.10
2023-10-23T21:38:31.975Z,13.00
2023-10-23T21:40:58.721Z,13.00
2023-10-23T21:43:25.393Z,13.00
2023-10-23T21:46:09.366Z,13.00
2023-10-23T21:48:36.360Z,13.00
2023-10-23T21:51:03.760Z,13.00
2023-10-23T21:53:30.705Z,13.00
2023-10-23T21:55:57.800Z,13.00
2023-10-23T21:58:24.862Z,13.00
2023-10-23T22:00:51.967Z,13.00
2023-10-23T22:03:18.976Z,13.00
2023-10-23T22:05:48.042Z,13.00
2023-10-23T22:08:15.050Z,13.00
2023-10-23T22:10:42.112Z,13.00
2023-10-23T22:13:09.432Z,13.00
2023-10-23T22:15:36.095Z,13.00
2023-10-23T22:18:02.837Z,13.00
2023-10-23T22:20:29.477Z,13.00
2023-10-23T22:22:56.136Z,13.00
2023-10-23T22:25:22.907Z,13.00
2023-10-23T22:27:49.599Z,13.00
2023-10-23T22:30:16.507Z,13.00
2023-10-23T22:32:43.265Z,13.00
2023-10-23T22:35:10.514Z,13.00
2023-10-23T22:37:59.867Z,13.00
2023-10-23T22:40:23.955Z,13.00
2023-10-23T22:42:51.063Z,13.00
2023-10-23T22:45:17.845Z,13.00
2023-10-23T22:47:44.899Z,13.00
2023-10-23T22:50:13.273Z,13.00
2023-10-23T22:52:41.234Z,13.00
2023-10-23T22:55:09.458Z,13.00
2023-10-23T22:57:40.935Z,13.00
2023-10-23T23:00:11.703Z,13.00
2023-10-23T23:02:39.815Z,13.00
2023-10-23T23:05:08.046Z,13.00
2023-10-23T23:07:38.233Z,13.00
2023-10-23T23:10:07.921Z,13.00
2023-10-23T23:12:35.627Z,13.00
2023-10-23T23:15:03.947Z,13.00
2023-10-23T23:17:38.539Z,13.00
2023-10-23T23:20:12.754Z,13.00
2023-10-23T23:22:40.509Z,13.00
2023-10-23T23:25:09.899Z,13.00
2023-10-23T23:27:36.892Z,13.00
2023-10-23T23:30:04.128Z,13.00
2023-10-23T23:32:30.938Z,13.00
2023-10-23T23:34:57.718Z,13.00
2023-10-23T23:37:24.346Z,12.92
2023-10-23T23:39:51.056Z,12.98
2023-10-23T23:42:17.778Z,12.92
2023-10-23T23:44:44.341Z,13.00
2023-10-23T23:47:10.977Z,12.96
2023-10-23T23:49:37.686Z,12.90
2023-10-23T23:52:04.675Z,12.90
2023-10-23T23:54:31.426Z,12.94
2023-10-23T23:56:58.070Z,13.00
2023-10-23T23:59:24.704Z,13.00
